This is the latest recevied weather packets stored in our database for station/object OZ0AJ-13. If no packets are shown the sender has not sent any weather packets the latest 10 day(s).
| Time | Temp. | Humidity | Pressure | Rain* | Wind** | Luminosity | Snow |
|---|---|---|---|---|---|---|---|
| 1777920632 | 8.33° C | 79% | 1013.5 hPa | 0 mm | - | - | - |
| 1777920028 | 8.33° C | 78% | 1013.4 hPa | 0 mm | - | - | - |
| 1777919424 | 8.89° C | 77% | 1013.3 hPa | 0 mm | - | - | - |
| 1777918820 | 9.44° C | 76% | 1013.4 hPa | 0 mm | - | - | - |
| 1777918216 | 9.44° C | 75% | 1013.3 hPa | 0 mm | - | - | - |
| 1777917632 | 9.44° C | 73% | 1013.3 hPa | 0 mm | - | - | - |
| 1777917028 | 9.44° C | 72% | 1013.6 hPa | 0 mm | - | - | - |
| 1777916426 | 10.56° C | 69% | 1013.5 hPa | 0 mm | - | - | - |
| 1777915820 | 11.67° C | 66% | 1013.5 hPa | 0 mm | - | - | - |
| 1777915216 | 11.67° C | 66% | 1013.5 hPa | 0 mm | - | - | - |
| 1777914632 | 12.22° C | 62% | 1013.4 hPa | 0 mm | - | - | - |
| 1777914028 | 12.78° C | 62% | 1013.3 hPa | 0 mm | - | - | - |
| 1777913424 | 12.78° C | 62% | 1013.3 hPa | 0 mm | - | - | - |
| 1777912820 | 13.33° C | 59% | 1013.4 hPa | 0 mm | - | - | - |
| 1777912216 | 13.89° C | 57% | 1013.5 hPa | 0 mm | - | - | - |
| 1777911633 | 13.89° C | 56% | 1013.5 hPa | 0 mm | - | - | - |
| 1777911028 | 13.89° C | 57% | 1013.4 hPa | 0 mm | - | - | - |
| 1777910424 | 14.44° C | 54% | 1013.5 hPa | 0 mm | - | - | - |
| 1777909820 | 13.33° C | 57% | 1013.4 hPa | 0 mm | - | - | - |
| 1777909216 | 13.33° C | 57% | 1013.4 hPa | 0 mm | - | - | - |
| 1777908632 | 13.33° C | 57% | 1013.4 hPa | 0 mm | - | - | - |
| 1777908028 | 14.44° C | 56% | 1013.3 hPa | 0 mm | - | - | - |
| 1777907424 | 13.89° C | 55% | 1013.3 hPa | 0 mm | - | - | - |
| 1777906820 | 13.89° C | 56% | 1013.3 hPa | 0 mm | - | - | - |
| 1777906216 | 13.89° C | 56% | 1013.5 hPa | 0 mm | - | - | - |
* Rain latest hour (hover to see other rain measurements)
** Current wind speed in m/s (hover to see current wind gust speed)